Time;durP1;ratioP1;P1;durP2;ratioP2;P2;SDS_P1;SDS_P2;PMS_P1;PMS_P2;Temp;Humidity;BMP_temperature;BMP_pressure;BME280_temperature;BME280_humidity;BME280_pressure;Samples;Min_cycle;Max_cycle;Signal;HPM_P1;HPM_P2
2021/09/17 00:00:24;;;;;;;5.80;2.67;;;;;;;;;;5042637;28;20029;-85
2021/09/17 00:02:50;;;;;;;3.58;2.22;;;;;;;;;;5022183;28;20034;-86
2021/09/17 00:05:16;;;;;;;7.40;2.78;;;;;;;;;;5020376;28;20029;-87
2021/09/17 00:07:42;;;;;;;4.13;2.05;;;;;;;;;;5041401;28;20033;-87
2021/09/17 00:10:09;;;;;;;6.93;2.90;;;;;;;;;;5027867;28;20376;-86
2021/09/17 00:12:35;;;;;;;2.90;1.95;;;;;;;;;;5019490;28;20022;-85
2021/09/17 00:15:01;;;;;;;10.95;2.33;;;;;;;;;;5016012;28;20117;-86
2021/09/17 00:17:27;;;;;;;3.75;1.95;;;;;;;;;;5036310;28;20140;-87
2021/09/17 00:19:53;;;;;;;12.13;1.90;;;;;;;;;;5016880;28;20059;-86
2021/09/17 00:22:19;;;;;;;7.53;3.42;;;;;;;;;;5025478;28;20030;-85
2021/09/17 00:24:45;;;;;;;4.90;1.92;;;;;;;;;;5018003;28;20054;-86
2021/09/17 00:27:11;;;;;;;5.72;2.05;;;;;;;;;;5039783;28;20470;-87
2021/09/17 00:29:37;;;;;;;4.57;1.42;;;;;;;;;;5042574;28;20087;-87
2021/09/17 00:32:04;;;;;;;6.13;2.47;;;;;;;;;;5031575;28;20052;-86
2021/09/17 00:34:30;;;;;;;3.97;2.47;;;;;;;;;;5046847;28;20030;-87
2021/09/17 00:36:56;;;;;;;5.47;1.95;;;;;;;;;;5032412;28;20193;-86
2021/09/17 00:39:22;;;;;;;8.30;3.13;;;;;;;;;;5036567;28;20030;-87
2021/09/17 00:41:48;;;;;;;3.13;1.88;;;;;;;;;;5035345;28;20030;-87
2021/09/17 00:44:23;;;;;;;6.13;2.42;;;;;;;;;;5016392;28;20036;-85
2021/09/17 00:46:49;;;;;;;5.47;2.67;;;;;;;;;;5031595;28;20088;-87
2021/09/17 00:49:15;;;;;;;4.30;2.85;;;;;;;;;;5030097;28;20399;-86
2021/09/17 00:51:41;;;;;;;2.78;1.67;;;;;;;;;;5027497;28;20025;-86
2021/09/17 00:54:07;;;;;;;5.68;2.42;;;;;;;;;;5026373;28;20064;-85
2021/09/17 00:56:33;;;;;;;5.15;2.42;;;;;;;;;;5027978;28;20072;-85
2021/09/17 00:58:59;;;;;;;4.20;2.17;;;;;;;;;;5015628;28;20041;-86
2021/09/17 01:01:25;;;;;;;5.47;2.85;;;;;;;;;;5029751;28;20026;-85
2021/09/17 01:03:52;;;;;;;4.78;2.05;;;;;;;;;;5027692;28;20025;-87
2021/09/17 01:06:18;;;;;;;3.20;2.08;;;;;;;;;;5026396;28;20066;-86
2021/09/17 01:08:44;;;;;;;9.80;2.53;;;;;;;;;;5041417;28;20759;-87
2021/09/17 01:11:10;;;;;;;3.63;2.63;;;;;;;;;;5030511;28;20021;-86
2021/09/17 01:13:36;;;;;;;5.53;1.98;;;;;;;;;;5012820;28;20390;-87
2021/09/17 01:16:02;;;;;;;3.08;1.98;;;;;;;;;;5027224;28;20041;-85
2021/09/17 01:18:28;;;;;;;4.57;2.22;;;;;;;;;;5042376;28;20056;-86
2021/09/17 01:20:59;;;;;;;5.93;2.42;;;;;;;;;;5025919;28;20108;-87
2021/09/17 01:23:25;;;;;;;3.58;2.22;;;;;;;;;;5026106;28;20046;-86
2021/09/17 01:25:51;;;;;;;4.82;1.90;;;;;;;;;;5028922;28;20029;-85
2021/09/17 01:28:28;;;;;;;7.97;2.72;;;;;;;;;;5027149;28;20034;-87
2021/09/17 01:30:54;;;;;;;;;;;;;;;;;;5015354;28;20778;-86
2021/09/17 01:33:20;;;;;;;3.10;1.83;;;20.20;77.60;;;;;;5039412;28;20007;-86
2021/09/17 01:35:46;;;;;;;2.72;1.73;;;;;;;;;;5023538;28;20038;-87
2021/09/17 01:38:14;;;;;;;2.55;1.48;;;;;;;;;;5014998;28;20045;-86
2021/09/17 01:40:40;;;;;;;4.15;2.05;;;;;;;;;;5030370;28;20486;-85
2021/09/17 01:43:06;;;;;;;3.28;1.65;;;;;;;;;;5042679;28;20563;-87
2021/09/17 01:45:32;;;;;;;6.20;2.05;;;;;;;;;;5041122;28;20037;-87
2021/09/17 01:47:58;;;;;;;2.40;1.70;;;;;;;;;;5041143;28;20030;-87
2021/09/17 01:50:24;;;;;;;2.38;1.42;;;;;;;;;;5025190;28;20088;-86
2021/09/17 01:52:50;;;;;;;3.88;2.00;;;;;;;;;;5014380;28;20552;-87
2021/09/17 01:55:17;;;;;;;6.20;2.20;;;;;;;;;;5042638;28;20036;-86
2021/09/17 01:57:43;;;;;;;4.60;2.10;;;;;;;;;;5018289;28;20048;-86
2021/09/17 02:00:10;;;;;;;3.65;2.17;;;;;;;;;;5018882;28;20030;-86
2021/09/17 02:02:36;;;;;;;;;;;20.00;75.70;;;;;;5019083;28;20030;-86
2021/09/17 02:05:02;;;;;;;3.25;1.40;;;;;;;;;;5015789;28;20031;-87
2021/09/17 02:07:28;;;;;;;2.13;1.60;;;;;;;;;;5028390;28;20040;-86
2021/09/17 02:09:54;;;;;;;4.80;2.20;;;;;;;;;;5028483;28;20028;-87
2021/09/17 02:12:20;;;;;;;2.83;2.45;;;;;;;;;;5025088;28;20116;-87
2021/09/17 02:14:46;;;;;;;2.40;1.27;;;;;;;;;;5025134;28;20077;-86
2021/09/17 02:17:12;;;;;;;3.55;1.95;;;;;;;;;;5029010;28;20037;-86
2021/09/17 02:19:38;;;;;;;8.10;1.65;;;;;;;;;;5044806;28;20124;-86
2021/09/17 02:22:04;;;;;;;22.25;2.47;;;;;;;;;;5015177;28;20026;-87
2021/09/17 02:24:30;;;;;;;2.30;1.42;;;;;;;;;;5015905;28;20077;-86
2021/09/17 02:26:56;;;;;;;9.85;1.45;;;;;;;;;;5036023;28;20079;-87
2021/09/17 02:29:22;;;;;;;1.40;1.10;;;;;;;;;;5039998;28;20062;-87
2021/09/17 02:31:48;;;;;;;1.88;1.10;;;;;;;;;;5027951;28;20119;-86
2021/09/17 02:34:14;;;;;;;7.32;1.45;;;;;;;;;;5026390;28;20122;-85
2021/09/17 02:36:40;;;;;;;7.88;1.75;;;;;;;;;;5025954;28;20072;-86
2021/09/17 02:39:07;;;;;;;3.53;1.75;;;;;;;;;;5037162;28;20465;-86
2021/09/17 02:41:33;;;;;;;2.55;1.48;;;;;;;;;;5016743;28;20044;-86
2021/09/17 02:43:59;;;;;;;4.80;1.88;;;;;;;;;;5026271;28;20089;-85
2021/09/17 02:46:25;;;;;;;4.80;2.53;;;;;;;;;;5028990;28;20036;-86
2021/09/17 02:48:51;;;;;;;3.42;1.25;;;;;;;;;;5024517;28;20104;-87
2021/09/17 02:51:17;;;;;;;5.00;1.38;;;;;;;;;;5029167;28;20124;-86
2021/09/17 02:53:43;;;;;;;2.42;1.45;;;;;;;;;;5024816;28;20495;-86
2021/09/17 02:56:09;;;;;;;8.18;1.67;;;;;;;;;;5015550;28;20117;-87
2021/09/17 02:58:36;;;;;;;5.38;1.67;;;;;;;;;;5043356;28;20109;-86
2021/09/17 03:01:03;;;;;;;2.78;1.38;;;;;;;;;;5030058;28;20057;-86
2021/09/17 03:03:29;;;;;;;1.73;1.05;;;;;;;;;;5013909;28;20034;-88
2021/09/17 03:05:55;;;;;;;8.20;1.33;;;;;;;;;;5017799;28;20037;-86
2021/09/17 03:08:21;;;;;;;2.67;1.13;;;;;;;;;;5014966;28;20068;-85
2021/09/17 03:10:47;;;;;;;2.45;1.33;;;;;;;;;;5040802;28;20093;-86
2021/09/17 03:13:13;;;;;;;2.35;1.00;;;;;;;;;;5013206;28;20041;-86
2021/09/17 03:15:39;;;;;;;1.98;1.30;;;;;;;;;;5030220;28;20021;-86
2021/09/17 03:18:05;;;;;;;4.32;2.05;;;;;;;;;;5016121;28;20494;-85
2021/09/17 03:20:31;;;;;;;2.28;1.55;;;;;;;;;;5032155;28;20490;-86
2021/09/17 03:22:57;;;;;;;5.70;2.20;;;;;;;;;;5026287;28;20062;-86
2021/09/17 03:25:23;;;;;;;3.47;1.70;;;;;;;;;;5011652;28;20062;-85
2021/09/17 03:27:49;;;;;;;3.83;1.85;;;;;;;;;;5030334;28;20029;-87
2021/09/17 03:30:15;;;;;;;4.32;1.83;;;;;;;;;;5029195;28;20022;-86
2021/09/17 03:32:41;;;;;;;2.00;1.42;;;;;;;;;;5029143;28;20103;-86
2021/09/17 03:35:08;;;;;;;1.50;1.08;;;;;;;;;;5026301;28;20040;-87
2021/09/17 03:37:34;;;;;;;5.82;2.15;;;;;;;;;;5032276;28;20463;-85
2021/09/17 03:40:00;;;;;;;2.47;1.30;;;;;;;;;;5017127;28;20483;-86
2021/09/17 03:42:28;;;;;;;4.55;1.48;;;;;;;;;;5016860;28;20042;-87
2021/09/17 03:44:55;;;;;;;1.88;1.20;;;;;;;;;;5027495;28;20041;-86
2021/09/17 03:47:21;;;;;;;1.92;1.63;;;;;;;;;;5030739;28;20044;-86
2021/09/17 03:49:47;;;;;;;2.17;1.35;;;;;;;;;;5031352;28;20030;-87
2021/09/17 03:52:13;;;;;;;16.90;2.47;;;;;;;;;;5034176;28;20049;-86
2021/09/17 03:54:38;;;;;;;2.35;2.00;;;;;;;;;;5025602;28;20490;-86
2021/09/17 03:57:05;;;;;;;2.78;1.80;;;;;;;;;;5028604;28;20068;-86
2021/09/17 03:59:31;;;;;;;3.00;1.67;;;;;;;;;;5047642;28;20024;-86
2021/09/17 04:02:00;;;;;;;3.15;1.63;;;;;;;;;;5044735;28;20033;-85
2021/09/17 04:04:26;;;;;;;7.40;1.58;;;;;;;;;;5031337;28;20111;-86
2021/09/17 04:06:53;;;;;;;3.20;1.52;;;;;;;;;;5028617;28;20513;-86
2021/09/17 04:09:19;;;;;;;3.10;1.20;;;;;;;;;;5022080;28;20030;-86
2021/09/17 04:11:45;;;;;;;9.15;2.00;;;;;;;;;;5032116;28;20028;-86
2021/09/17 04:14:11;;;;;;;5.78;1.90;;;;;;;;;;5030005;28;20050;-87
2021/09/17 04:16:37;;;;;;;2.95;1.75;;;;;;;;;;5045781;28;20499;-87
2021/09/17 04:19:04;;;;;;;3.20;2.05;;;;;;;;;;5028447;28;20104;-85
2021/09/17 04:21:30;;;;;;;11.90;1.80;;;;;;;;;;5047710;28;20049;-86
2021/09/17 04:23:56;;;;;;;2.20;1.50;;;;;;;;;;5030810;28;20057;-87
2021/09/17 04:26:23;;;;;;;2.78;1.35;;;;;;;;;;5043342;28;20088;-86
2021/09/17 04:28:49;;;;;;;2.40;2.00;;;;;;;;;;5029548;28;20057;-85
2021/09/17 04:31:15;;;;;;;3.00;1.67;;;;;;;;;;5013216;28;20517;-86
2021/09/17 04:33:41;;;;;;;1.92;1.25;;;;;;;;;;5015716;28;20029;-86
2021/09/17 04:36:07;;;;;;;7.25;1.50;;;;;;;;;;5020219;28;20100;-86
2021/09/17 04:38:33;;;;;;;3.85;1.67;;;;;;;;;;5024870;28;20068;-86
2021/09/17 04:41:00;;;;;;;4.20;2.03;;;;;;;;;;5030771;28;20030;-85
2021/09/17 04:43:27;;;;;;;6.20;2.33;;;;;;;;;;5030385;28;20083;-86
2021/09/17 04:45:53;;;;;;;2.10;1.48;;;;;;;;;;5027965;28;20064;-86
2021/09/17 04:48:19;;;;;;;2.95;1.67;;;;;;;;;;5036637;28;20037;-86
2021/09/17 04:50:46;;;;;;;3.75;1.50;;;;;;;;;;5020745;28;20083;-86
2021/09/17 04:53:12;;;;;;;4.93;2.33;;;;;;;;;;5027141;28;20157;-87
2021/09/17 04:55:39;;;;;;;8.30;2.30;;;18.90;74.10;;;;;;5045720;28;20050;-86
2021/09/17 04:58:06;;;;;;;5.15;2.83;;;;;;;;;;5026945;28;20099;-86
2021/09/17 05:00:32;;;;;;;5.30;2.05;;;;;;;;;;5042671;28;20516;-87
2021/09/17 05:02:58;;;;;;;2.90;1.83;;;;;;;;;;5042168;28;20041;-86
2021/09/17 05:05:25;;;;;;;5.80;3.20;;;;;;;;;;5029345;28;20387;-85
2021/09/17 05:07:51;;;;;;;3.70;1.83;;;;;;;;;;5030040;28;20029;-85
2021/09/17 05:10:17;;;;;;;9.85;2.05;;;;;;;;;;5028186;28;20028;-87
2021/09/17 05:12:43;;;;;;;4.60;1.63;;;;;;;;;;5014929;28;20060;-86
2021/09/17 05:15:09;;;;;;;3.13;2.40;;;;;;;;;;5038480;28;20072;-86
2021/09/17 05:17:35;;;;;;;9.50;2.33;;;;;;;;;;5027658;28;20119;-86
2021/09/17 05:20:01;;;;;;;3.10;1.75;;;;;;;;;;5033806;28;20398;-86
2021/09/17 05:22:29;;;;;;;4.32;1.80;;;;;;;;;;5014786;28;20041;-86
2021/09/17 05:24:55;;;;;;;3.72;1.90;;;;;;;;;;5025762;28;20043;-85
2021/09/17 05:27:21;;;;;;;3.85;2.20;;;;;;;;;;5027410;28;20100;-87
2021/09/17 05:29:47;;;;;;;4.75;2.17;;;;;;;;;;5020346;28;20574;-86
2021/09/17 05:32:14;;;;;;;3.03;2.50;;;;;;;;;;5024637;28;20033;-86
2021/09/17 05:34:40;;;;;;;5.82;2.70;;;;;;;;;;5024845;28;20021;-85
2021/09/17 05:37:06;;;;;;;7.85;2.15;;;;;;;;;;5024617;28;20118;-86
2021/09/17 05:39:33;;;;;;;3.75;2.70;;;19.20;74.20;;;;;;5022087;28;20025;-87
2021/09/17 05:41:59;;;;;;;29.45;2.65;;;;;;;;;;5025274;28;20060;-85
2021/09/17 05:44:26;;;;;;;5.22;1.75;;;;;;;;;;5018311;28;20096;-85
2021/09/17 05:46:53;;;;;;;4.85;2.72;;;;;;;;;;5027265;28;20184;-86
2021/09/17 05:49:19;;;;;;;3.70;2.35;;;;;;;;;;5023180;28;20033;-86
2021/09/17 05:51:45;;;;;;;3.00;1.95;;;;;;;;;;5024550;28;20026;-87
2021/09/17 05:54:11;;;;;;;4.15;2.55;;;;;;;;;;5027920;28;20028;-85
2021/09/17 05:56:37;;;;;;;3.58;1.77;;;;;;;;;;5017220;28;20021;-86
2021/09/17 05:59:03;;;;;;;2.88;1.98;;;;;;;;;;5028873;28;20140;-86
2021/09/17 06:01:29;;;;;;;6.30;2.25;;;;;;;;;;5028794;28;20561;-86
2021/09/17 06:03:55;;;;;;;2.50;2.10;;;;;;;;;;5015696;28;20030;-87
2021/09/17 06:06:21;;;;;;;2.20;1.60;;;;;;;;;;5026790;28;20111;-87
2021/09/17 06:08:48;;;;;;;4.70;2.40;;;;;;;;;;5028457;28;20390;-86
2021/09/17 06:11:14;;;;;;;;;;;;;;;;;;5026870;28;20049;-88
2021/09/17 06:13:40;;;;;;;5.03;1.63;;;;;;;;;;5012639;28;19944;-86
2021/09/17 06:16:06;;;;;;;4.30;2.30;;;;;;;;;;5041015;28;20076;-86
2021/09/17 06:18:32;;;;;;;5.15;2.40;;;;;;;;;;5021264;28;20025;-85
2021/09/17 06:20:58;;;;;;;4.82;2.35;;;;;;;;;;5024264;28;20146;-86
2021/09/17 06:23:25;;;;;;;4.53;2.55;;;;;;;;;;5023783;28;20034;-86
2021/09/17 06:25:51;;;;;;;11.50;2.85;;;;;;;;;;5028134;28;20091;-90
2021/09/17 06:28:17;;;;;;;4.13;2.15;;;;;;;;;;5013213;28;20046;-85
2021/09/17 06:30:44;;;;;;;5.93;2.00;;;;;;;;;;5015575;28;20404;-84
2021/09/17 06:33:10;;;;;;;6.20;2.45;;;;;;;;;;5020211;28;20037;-82
2021/09/17 06:35:36;;;;;;;3.20;1.75;;;;;;;;;;5024265;28;20030;-87
2021/09/17 06:38:03;;;;;;;3.90;2.33;;;;;;;;;;5016361;28;20052;-88
2021/09/17 06:40:29;;;;;;;7.78;2.47;;;;;;;;;;5025686;28;20560;-89
2021/09/17 06:42:56;;;;;;;2.78;1.90;;;;;;;;;;5038130;28;20037;-90
2021/09/17 06:45:22;;;;;;;3.53;2.28;;;;;;;;;;5021245;28;20017;-87
2021/09/17 06:47:48;;;;;;;9.20;2.20;;;;;;;;;;5024794;28;20038;-85
2021/09/17 06:50:15;;;;;;;5.00;2.55;;;;;;;;;;5027838;28;20071;-92
2021/09/17 06:52:47;;;;;;;3.80;2.33;;;;;;;;;;5026229;28;20105;-89
2021/09/17 06:55:14;;;;;;;3.53;2.47;;;;;;;;;;5042433;28;20064;-94
2021/09/17 06:57:44;;;;;;;3.00;1.80;;;;;;;;;;5020850;28;20034;-86
2021/09/17 07:00:11;;;;;;;4.90;2.65;;;;;;;;;;5023869;28;20037;-86
2021/09/17 07:02:37;;;;;;;5.40;2.70;;;;;;;;;;5042399;28;20084;-87
2021/09/17 07:05:03;;;;;;;4.22;3.13;;;;;;;;;;5028753;28;20033;-86
2021/09/17 07:07:29;;;;;;;4.22;2.83;;;;;;;;;;5021397;28;20033;-85
2021/09/17 07:09:55;;;;;;;4.35;2.42;;;;;;;;;;5024396;28;20021;-85
2021/09/17 07:12:21;;;;;;;3.67;2.03;;;;;;;;;;5020633;28;20030;-85
2021/09/17 07:14:47;;;;;;;3.97;2.67;;;;;;;;;;5020137;28;20073;-86
2021/09/17 07:17:13;;;;;;;4.95;2.95;;;;;;;;;;5027725;28;20057;-86
2021/09/17 07:19:39;;;;;;;6.88;3.00;;;;;;;;;;5029064;28;20434;-86
2021/09/17 07:22:05;;;;;;;9.88;3.58;;;;;;;;;;5027532;28;20025;-86
2021/09/17 07:24:32;;;;;;;4.43;3.00;;;;;;;;;;5035579;28;20558;-86
2021/09/17 07:26:58;;;;;;;5.03;2.60;;;;;;;;;;5019356;28;20033;-87
2021/09/17 07:29:24;;;;;;;5.10;2.47;;;;;;;;;;5034247;28;20025;-86
2021/09/17 07:31:50;;;;;;;10.30;3.33;;;;;;;;;;5019801;28;20117;-88
2021/09/17 07:34:16;;;;;;;3.90;2.17;;;;;;;;;;5020490;28;20128;-85
2021/09/17 07:36:42;;;;;;;6.53;2.35;;;;;;;;;;5026877;28;20029;-87
2021/09/17 07:39:09;;;;;;;4.85;2.88;;;;;;;;;;5042393;28;20029;-87
2021/09/17 07:41:35;;;;;;;5.20;2.95;;;;;;;;;;5027828;28;20032;-86
2021/09/17 07:44:01;;;;;;;6.38;3.22;;;;;;;;;;5028855;28;20029;-85
2021/09/17 07:46:27;;;;;;;4.22;2.65;;;;;;;;;;5025239;28;20473;-86
2021/09/17 07:48:53;;;;;;;3.63;2.72;;;;;;;;;;5035132;28;20057;-86
2021/09/17 07:51:19;;;;;;;8.57;3.70;;;;;;;;;;5026894;28;20116;-85
2021/09/17 07:53:45;;;;;;;8.65;4.07;;;;;;;;;;5025283;28;20018;-86
2021/09/17 07:56:11;;;;;;;7.10;4.13;;;;;;;;;;5016348;28;20631;-86
2021/09/17 07:58:37;;;;;;;10.75;4.05;;;;;;;;;;5011817;28;20133;-85
2021/09/17 08:01:04;;;;;;;10.48;5.40;;;;;;;;;;5026211;28;20128;-85
2021/09/17 08:03:32;;;;;;;6.57;3.60;;;;;;;;;;5036079;28;20033;-85
2021/09/17 08:05:58;;;;;;;8.43;3.63;;;;;;;;;;5035591;28;20029;-85
2021/09/17 08:08:24;;;;;;;10.85;2.90;;;;;;;;;;5039331;28;20698;-85
2021/09/17 08:10:50;;;;;;;8.40;3.17;;;;;;;;;;5023519;28;20101;-85
2021/09/17 08:13:16;;;;;;;7.47;3.50;;;;;;;;;;5008716;28;20030;-85
2021/09/17 08:15:42;;;;;;;4.70;2.42;;;;;;;;;;5030487;28;20494;-85
2021/09/17 08:18:08;;;;;;;5.32;2.78;;;;;;;;;;5032136;28;20048;-85
2021/09/17 08:20:34;;;;;;;7.30;3.13;;;;;;;;;;5019273;28;20037;-85
2021/09/17 08:23:00;;;;;;;6.97;2.40;;;;;;;;;;5024333;28;20034;-85
2021/09/17 08:25:27;;;;;;;6.03;2.53;;;;;;;;;;5025753;28;20517;-85
2021/09/17 08:27:53;;;;;;;5.55;2.67;;;;;;;;;;5042409;28;20299;-85
2021/09/17 08:30:19;;;;;;;3.92;2.00;;;;;;;;;;5017584;28;20037;-85
2021/09/17 08:32:45;;;;;;;3.42;2.50;;;;;;;;;;5016403;28;20030;-85
2021/09/17 08:35:11;;;;;;;3.45;2.50;;;;;;;;;;5017875;28;20832;-86
2021/09/17 08:37:37;;;;;;;5.20;2.73;;;;;;;;;;5038481;28;20037;-85
2021/09/17 08:40:04;;;;;;;5.47;3.20;;;;;;;;;;5030186;28;20264;-85
2021/09/17 08:42:32;;;;;;;3.30;1.92;;;;;;;;;;5024050;28;20036;-85
2021/09/17 08:44:58;;;;;;;3.67;2.13;;;;;;;;;;5021652;28;20499;-86
2021/09/17 08:47:24;;;;;;;4.45;2.20;;;;;;;;;;5018872;28;20034;-86
2021/09/17 08:49:50;;;;;;;5.18;2.58;;;;;;;;;;5030930;28;20483;-85
2021/09/17 08:52:17;;;;;;;4.72;2.35;;;;;;;;;;5042312;28;20025;-85
2021/09/17 08:54:43;;;;;;;3.28;2.05;;;;;;;;;;5024664;28;20022;-86
2021/09/17 08:57:09;;;;;;;2.65;1.92;;;;;;;;;;5020135;28;20084;-86
2021/09/17 08:59:35;;;;;;;5.07;1.63;;;;;;;;;;5033768;28;20026;-85
2021/09/17 09:02:20;;;;;;;4.75;2.58;;;;;;;;;;5019916;28;20037;-84
2021/09/17 09:04:55;;;;;;;2.50;1.80;;;;;;;;;;5026221;28;20033;-85
2021/09/17 09:07:30;;;;;;;4.22;1.50;;;22.50;68.90;;;;;;5023011;28;20664;-86
2021/09/17 09:10:04;;;;;;;4.15;2.50;;;;;;;;;;5039706;28;20071;-86
2021/09/17 09:12:30;;;;;;;2.65;1.77;;;;;;;;;;5024824;28;20030;-85
2021/09/17 09:15:19;;;;;;;2.92;2.13;;;22.80;66.40;;;;;;5025549;28;20521;-86
2021/09/17 09:17:46;;;;;;;4.95;2.72;;;;;;;;;;5019434;28;20033;-85
2021/09/17 09:20:22;;;;;;;2.38;1.50;;;;;;;;;;5037766;28;20126;-85
2021/09/17 09:23:07;;;;;;;9.53;1.97;;;;;;;;;;5032727;28;20534;-85
2021/09/17 09:25:34;;;;;;;2.05;1.20;;;;;;;;;;5038884;28;20300;-86
2021/09/17 09:28:10;;;;;;;2.58;0.82;;;;;;;;;;5014390;28;20030;-84
2021/09/17 09:30:36;;;;;;;2.65;1.20;;;;;;;;;;5016236;28;20033;-85
2021/09/17 09:33:25;;;;;;;3.40;1.00;;;27.20;52.90;;;;;;5016280;28;20091;-86
2021/09/17 09:36:03;;;;;;;2.78;0.88;;;27.60;51.70;;;;;;5019107;28;20497;-86
2021/09/17 09:38:41;;;;;;;2.95;0.50;;;27.80;46.70;;;;;;5019842;28;20025;-85
2021/09/17 09:41:09;;;;;;;1.65;0.68;;;27.60;46.80;;;;;;5013274;28;20022;-85
2021/09/17 09:43:55;;;;;;;1.20;0.55;;;27.50;47.10;;;;;;5023034;28;20512;-84
2021/09/17 09:46:21;;;;;;;2.92;0.63;;;;;;;;;;5019825;28;20151;-85
2021/09/17 09:49:00;;;;;;;1.60;0.20;;;27.10;45.90;;;;;;5023865;28;20568;-86
2021/09/17 09:51:30;;;;;;;1.23;0.68;;;26.80;48.80;;;;;;5015446;28;20030;-86
2021/09/17 09:53:57;;;;;;;4.45;1.15;;;;;;;;;;5024193;28;20561;-86
2021/09/17 09:56:23;;;;;;;2.15;1.10;;;;;;;;;;5015017;28;20041;-86
2021/09/17 09:58:50;;;;;;;1.40;0.55;;;;;;;;;;5024996;28;20034;-86
2021/09/17 10:01:20;;;;;;;0.63;0.30;;;26.10;48.70;;;;;;5018812;28;20034;-87
2021/09/17 10:03:47;;;;;;;1.17;0.55;;;;;;;;;;5022406;28;20709;-87
2021/09/17 10:06:17;;;;;;;1.07;0.60;;;26.70;51.70;;;;;;5023234;28;20041;-86
2021/09/17 10:08:44;;;;;;;3.35;1.70;;;27.30;50.20;;;;;;5026876;28;21248;-87
2021/09/17 10:11:10;;;;;;;;;;;27.80;48.80;;;;;;5027008;28;20038;-86
2021/09/17 10:13:36;;;;;;;4.47;0.70;;;;;;;;;;5023015;28;20004;-86
2021/09/17 10:16:02;;;;;;;1.40;0.40;;;;;;;;;;5020373;28;20076;-87
2021/09/17 10:18:28;;;;;;;1.10;0.52;;;;;;;;;;5021967;28;20287;-86
2021/09/17 10:20:55;;;;;;;3.03;0.93;;;;;;;;;;5036034;28;20109;-86
2021/09/17 10:23:29;;;;;;;1.27;0.88;;;29.70;60.00;;;;;;5024742;28;20045;-87
2021/09/17 10:26:01;;;;;;;5.00;0.88;;;;;;;;;;5018568;28;20068;-86
2021/09/17 10:28:28;;;;;;;2.20;0.43;;;;;;;;;;5024775;28;20037;-87
2021/09/17 10:31:13;;;;;;;0.70;0.30;;;29.30;42.70;;;;;;5026692;28;20028;-87
2021/09/17 10:33:39;;;;;;;1.17;0.70;;;;;;;;;;5026262;28;20041;-86
2021/09/17 10:36:05;;;;;;;4.97;0.43;;;;;;;;;;5038147;28;20041;-87
2021/09/17 10:38:32;;;;;;;1.23;0.55;;;;;;;;;;5033839;28;20033;-87
2021/09/17 10:41:04;;;;;;;5.05;1.27;;;;;;;;;;5023568;28;20542;-86
2021/09/17 10:43:32;;;;;;;1.73;0.63;;;;;;;;;;5026217;28;20049;-86
2021/09/17 10:46:03;;;;;;;3.72;0.65;;;;;;;;;;5025921;28;20391;-85
2021/09/17 10:48:29;;;;;;;4.95;0.60;;;;;;;;;;5038372;28;20029;-86
2021/09/17 10:51:03;;;;;;;5.60;0.95;;;;;;;;;;5024253;28;20025;-86
2021/09/17 10:53:41;;;;;;;0.95;0.50;;;26.90;48.60;;;;;;5022709;28;20117;-87
2021/09/17 10:56:13;;;;;;;1.45;0.80;;;;;;;;;;5039033;28;20044;-88
2021/09/17 10:58:40;;;;;;;5.90;2.13;;;;;;;;;;5042750;28;20041;-88
2021/09/17 11:01:10;;;;;;;1.10;0.60;;;;;;;;;;5028772;28;20120;-88
2021/09/17 11:03:38;;;;;;;1.92;0.70;;;;;;;;;;5027703;28;20026;-87
2021/09/17 11:06:29;;;;;;;4.40;0.82;;;;;;;;;;5040230;28;20124;-88
2021/09/17 11:09:00;;;;;;;1.52;0.82;;;;;;;;;;5025269;28;20052;-88
2021/09/17 11:11:33;;;;;;;7.10;0.63;;;26.20;50.70;;;;;;5035894;28;20067;-87
2021/09/17 11:14:04;;;;;;;2.22;0.85;;;;;;;;;;5022958;28;20029;-86
2021/09/17 11:16:31;;;;;;;1.00;0.73;;;;;;;;;;5035891;28;20041;-87
2021/09/17 11:19:05;;;;;;;1.02;0.80;;;;;;;;;;5021023;28;20065;-87
2021/09/17 11:21:35;;;;;;;1.45;0.65;;;;;;;;;;5018318;28;20611;-86
2021/09/17 11:24:02;;;;;;;1.52;1.35;;;;;;;;;;5019129;28;20529;-86
2021/09/17 11:26:31;;;;;;;1.02;0.88;;;26.30;50.40;;;;;;5030925;28;20033;-86
2021/09/17 11:28:59;;;;;;;2.30;0.75;;;26.10;51.30;;;;;;5039520;28;20038;-87
2021/09/17 11:31:35;;;;;;;1.90;1.35;;;;;;;;;;5026095;28;20253;-88
2021/09/17 11:34:05;;;;;;;1.55;0.70;;;26.10;48.80;;;;;;5023989;28;20108;-89
2021/09/17 11:36:34;;;;;;;2.75;1.02;;;;;;;;;;5024567;28;20041;-88
2021/09/17 11:39:10;;;;;;;1.15;0.70;;;26.30;50.20;;;;;;5028526;28;20044;-86
2021/09/17 11:41:40;;;;;;;4.00;0.63;;;;;;;;;;5033438;28;20493;-87
2021/09/17 11:44:06;;;;;;;1.02;0.63;;;;;;;;;;5024814;28;20068;-85
2021/09/17 11:46:32;;;;;;;2.05;0.85;;;26.20;50.40;;;;;;5032973;28;20537;-87
2021/09/17 11:48:59;;;;;;;2.47;1.10;;;;;;;;;;5028354;28;20030;-86
2021/09/17 11:51:25;;;;;;;5.40;1.10;;;;;;;;;;5024986;28;20029;-88
2021/09/17 11:53:51;;;;;;;5.10;1.83;;;;;;;;;;5026657;28;20277;-89
2021/09/17 11:56:17;;;;;;;0.90;0.50;;;;;;;;;;5031257;28;20044;-89
2021/09/17 11:58:47;;;;;;;1.90;0.73;;;;;;;;;;5034562;28;20033;-91
2021/09/17 12:01:31;;;;;;;4.47;1.00;;;;;;;;;;5017094;28;20097;-88
2021/09/17 12:03:57;;;;;;;0.93;0.68;;;;;;;;;;5015024;28;20034;-89
2021/09/17 12:06:23;;;;;;;1.38;0.95;;;;;;;;;;5027105;28;20033;-90
2021/09/17 12:08:49;;;;;;;0.77;0.60;;;;;;;;;;5028230;28;20398;-90
2021/09/17 12:11:20;;;;;;;1.50;0.88;;;;;;;;;;5033590;28;20029;-90
2021/09/17 12:13:53;;;;;;;1.50;1.00;;;26.10;49.20;;;;;;5033680;28;20063;-89
2021/09/17 12:16:20;;;;;;;4.07;1.05;;;26.00;53.30;;;;;;5033351;28;20558;-88
2021/09/17 12:18:59;;;;;;;;;;;26.00;51.80;;;;;;5034119;28;20114;-89
2021/09/17 12:21:25;;;;;;;2.30;1.08;;;;;;;;;;5033861;28;19912;-90
2021/09/17 12:24:15;;;;;;;1.50;0.90;;;26.00;49.50;;;;;;5033513;28;20049;-88
2021/09/17 12:26:55;;;;;;;0.95;0.73;;;26.00;52.50;;;;;;5033559;28;20034;-89
2021/09/17 12:29:34;;;;;;;0.93;0.75;;;25.90;51.60;;;;;;5033619;28;20100;-89
2021/09/17 12:32:15;;;;;;;4.00;0.60;;;25.90;53.20;;;;;;5016364;28;20038;-90
2021/09/17 12:35:02;;;;;;;1.30;0.68;;;25.70;54.60;;;;;;5028146;28;20056;-90
2021/09/17 12:37:32;;;;;;;1.45;0.90;;;;;;;;;;5039328;28;20444;-88
2021/09/17 12:40:21;;;;;;;0.80;0.65;;;25.30;73.40;;;;;;5033114;28;20477;-89
2021/09/17 12:42:58;;;;;;;1.30;0.55;;;;;;;;;;5042201;28;20111;-88
2021/09/17 12:45:24;;;;;;;7.03;1.48;;;;;;;;;;5023867;28;20034;-89
2021/09/17 12:47:52;;;;;;;6.75;1.35;;;;;;;;;;5026539;28;20148;-88
2021/09/17 12:50:17;;;;;;;;;;;25.20;53.10;;;;;;5033497;28;20026;-89
2021/09/17 12:52:47;;;;;;;1.40;0.60;;;25.20;53.20;;;;;;5018592;28;19917;-90
2021/09/17 12:55:30;;;;;;;1.23;0.80;;;25.20;54.20;;;;;;5035680;28;20079;-90
2021/09/17 12:58:02;;;;;;;4.80;0.85;;;25.10;52.30;;;;;;5047330;28;20137;-89
2021/09/17 13:00:33;;;;;;;1.23;0.50;;;25.10;52.20;;;;;;5018502;28;20026;-88
2021/09/17 13:03:04;;;;;;;1.80;1.00;;;;;;;;;;5028229;28;20033;-88
2021/09/17 13:05:31;;;;;;;0.85;0.68;;;;;;;;;;5030499;28;20044;-89
2021/09/17 13:07:57;;;;;;;1.52;1.35;;;;;;;;;;5018979;28;20524;-90
2021/09/17 13:10:23;;;;;;;1.85;0.80;;;;;;;;;;5032887;28;20048;-89
2021/09/17 13:12:50;;;;;;;2.40;1.00;;;;;;;;;;5025262;28;20470;-88
2021/09/17 13:15:16;;;;;;;1.45;0.75;;;;;;;;;;5032758;28;20037;-90
2021/09/17 13:17:42;;;;;;;2.00;0.60;;;;;;;;;;5032837;28;20061;-89
2021/09/17 13:20:09;;;;;;;1.02;0.63;;;24.90;53.40;;;;;;5048277;28;20043;-88
2021/09/17 13:22:35;;;;;;;1.23;0.73;;;;;;;;;;5033294;28;20394;-89
2021/09/17 13:25:01;;;;;;;2.13;0.97;;;;;;;;;;5013859;28;20056;-89
2021/09/17 13:27:27;;;;;;;4.07;0.75;;;;;;;;;;5031072;28;20026;-89
2021/09/17 13:29:53;;;;;;;2.38;0.80;;;;;;;;;;5026596;28;20022;-89
2021/09/17 13:32:22;;;;;;;2.08;0.70;;;;;;;;;;5017760;28;20090;-89
2021/09/17 13:34:48;;;;;;;4.22;1.25;;;;;;;;;;5018223;28;20116;-89
2021/09/17 13:37:14;;;;;;;5.13;0.70;;;;;;;;;;5032934;28;20128;-88
2021/09/17 13:39:40;;;;;;;1.75;0.73;;;;;;;;;;5032739;28;20021;-89
2021/09/17 13:42:06;;;;;;;2.10;1.20;;;;;;;;;;5032600;28;20033;-89
2021/09/17 13:44:32;;;;;;;1.80;1.02;;;;;;;;;;5031427;28;20040;-89
2021/09/17 13:46:58;;;;;;;1.40;0.88;;;;;;;;;;5031177;28;20839;-91
2021/09/17 13:49:24;;;;;;;1.73;0.85;;;;;;;;;;5031123;28;20116;-90
2021/09/17 13:51:50;;;;;;;1.30;1.10;;;;;;;;;;5032354;28;20082;-89
2021/09/17 13:54:16;;;;;;;3.05;0.85;;;;;;;;;;5047656;28;20021;-90
2021/09/17 13:56:42;;;;;;;0.88;0.80;;;;;;;;;;5047631;28;20048;-89
2021/09/17 13:59:08;;;;;;;2.20;1.17;;;;;;;;;;5031434;28;20112;-89
2021/09/17 14:01:34;;;;;;;1.67;0.90;;;;;;;;;;5033139;28;20125;-89
2021/09/17 14:04:00;;;;;;;0.90;0.65;;;;;;;;;;5032993;28;20025;-89
2021/09/17 14:06:26;;;;;;;1.58;0.68;;;;;;;;;;5032046;28;20037;-89
2021/09/17 14:08:52;;;;;;;1.63;0.90;;;23.60;59.90;;;;;;5031591;28;20509;-89
2021/09/17 14:11:18;;;;;;;4.15;1.45;;;;;;;;;;5030699;28;20036;-88
2021/09/17 14:13:44;;;;;;;1.10;0.60;;;;;;;;;;5031586;28;20100;-89
2021/09/17 14:16:10;;;;;;;4.25;1.02;;;;;;;;;;5013444;28;20113;-89
2021/09/17 14:18:36;;;;;;;0.80;0.65;;;;;;;;;;5031704;28;20033;-89
2021/09/17 14:21:04;;;;;;;3.60;0.88;;;;;;;;;;5031002;28;20029;-89
2021/09/17 14:23:30;;;;;;;1.13;0.70;;;;;;;;;;5045749;28;20038;-90
2021/09/17 14:25:56;;;;;;;1.48;0.98;;;;;;;;;;5026618;28;20076;-88
2021/09/17 14:28:22;;;;;;;2.20;1.20;;;;;;;;;;5029347;28;20079;-90
2021/09/17 14:30:48;;;;;;;1.65;1.00;;;;;;;;;;5032131;28;20087;-89